sensor_id;sensor_type;location;lat;lon;timestamp;temperature;humidity
1878;DHT22;939;51.426;6.972;2024-03-23T01:30:49;9.60;99.90
1878;DHT22;939;51.426;6.972;2024-03-23T01:33:16;9.20;99.90
1878;DHT22;939;51.426;6.972;2024-03-23T01:35:41;9.30;99.90
1878;DHT22;939;51.426;6.972;2024-03-23T01:38:08;9.00;99.90
1878;DHT22;939;51.426;6.972;2024-03-23T01:40:36;9.10;99.90
1878;DHT22;939;51.426;6.972;2024-03-23T01:43:10;9.10;99.90
1878;DHT22;939;51.426;6.972;2024-03-23T01:45:36;9.20;99.90
1878;DHT22;939;51.426;6.972;2024-03-23T01:48:06;9.30;99.90
1878;DHT22;939;51.426;6.972;2024-03-23T01:50:32;9.10;99.90
1878;DHT22;939;51.426;6.972;2024-03-23T01:53:00;9.10;99.90
1878;DHT22;939;51.426;6.972;2024-03-23T01:55:28;9.10;99.90
1878;DHT22;939;51.426;6.972;2024-03-23T01:57:56;9.20;99.90
1878;DHT22;939;51.426;6.972;2024-03-23T02:00:22;9.20;99.90
1878;DHT22;939;51.426;6.972;2024-03-23T02:02:49;9.20;99.90
1878;DHT22;939;51.426;6.972;2024-03-23T02:05:16;9.20;99.90
1878;DHT22;939;51.426;6.972;2024-03-23T02:07:43;9.10;99.90
1878;DHT22;939;51.426;6.972;2024-03-23T02:10:10;8.60;99.90
1878;DHT22;939;51.426;6.972;2024-03-23T02:12:38;8.50;99.90
1878;DHT22;939;51.426;6.972;2024-03-23T02:15:05;8.60;99.90
1878;DHT22;939;51.426;6.972;2024-03-23T02:17:34;8.70;99.90
1878;DHT22;939;51.426;6.972;2024-03-23T02:20:00;8.90;99.90
1878;DHT22;939;51.426;6.972;2024-03-23T02:22:36;9.00;99.90
1878;DHT22;939;51.426;6.972;2024-03-23T02:25:03;9.00;99.90
1878;DHT22;939;51.426;6.972;2024-03-23T02:27:30;9.10;99.90
1878;DHT22;939;51.426;6.972;2024-03-23T02:29:56;9.00;99.90
1878;DHT22;939;51.426;6.972;2024-03-23T02:32:23;9.10;99.90
1878;DHT22;939;51.426;6.972;2024-03-23T02:34:49;9.10;99.90
1878;DHT22;939;51.426;6.972;2024-03-23T02:37:16;9.10;99.90
1878;DHT22;939;51.426;6.972;2024-03-23T02:39:42;9.20;99.90
1878;DHT22;939;51.426;6.972;2024-03-23T02:42:10;9.20;99.90
1878;DHT22;939;51.426;6.972;2024-03-23T02:44:36;9.20;99.90
1878;DHT22;939;51.426;6.972;2024-03-23T02:47:03;9.20;99.90
1878;DHT22;939;51.426;6.972;2024-03-23T02:49:29;9.20;99.90
1878;DHT22;939;51.426;6.972;2024-03-23T02:51:56;9.20;99.90
1878;DHT22;939;51.426;6.972;2024-03-23T02:54:22;9.10;99.90
1878;DHT22;939;51.426;6.972;2024-03-23T02:56:48;8.90;99.90
1878;DHT22;939;51.426;6.972;2024-03-23T02:59:16;9.00;99.90
1878;DHT22;939;51.426;6.972;2024-03-23T03:01:42;9.10;99.90
1878;DHT22;939;51.426;6.972;2024-03-23T03:04:08;9.10;99.90
1878;DHT22;939;51.426;6.972;2024-03-23T03:06:35;9.20;99.90
1878;DHT22;939;51.426;6.972;2024-03-23T03:09:01;9.20;99.90
1878;DHT22;939;51.426;6.972;2024-03-23T03:11:28;9.20;99.90
1878;DHT22;939;51.426;6.972;2024-03-23T03:13:54;9.20;99.90
1878;DHT22;939;51.426;6.972;2024-03-23T03:16:22;9.20;99.90
1878;DHT22;939;51.426;6.972;2024-03-23T03:18:48;9.20;99.90
1878;DHT22;939;51.426;6.972;2024-03-23T03:21:16;9.20;99.90
1878;DHT22;939;51.426;6.972;2024-03-23T03:23:42;9.20;99.90
1878;DHT22;939;51.426;6.972;2024-03-23T03:26:23;9.00;99.90
1878;DHT22;939;51.426;6.972;2024-03-23T03:28:50;9.00;99.90
1878;DHT22;939;51.426;6.972;2024-03-23T03:31:17;9.10;99.90
1878;DHT22;939;51.426;6.972;2024-03-23T03:33:45;9.10;99.90
1878;DHT22;939;51.426;6.972;2024-03-23T03:36:11;9.10;99.90
1878;DHT22;939;51.426;6.972;2024-03-23T03:38:38;9.10;99.90
1878;DHT22;939;51.426;6.972;2024-03-23T03:41:04;9.00;99.90
1878;DHT22;939;51.426;6.972;2024-03-23T03:43:31;9.10;99.90
1878;DHT22;939;51.426;6.972;2024-03-23T03:45:58;8.90;99.90
1878;DHT22;939;51.426;6.972;2024-03-23T03:48:25;9.00;99.90
1878;DHT22;939;51.426;6.972;2024-03-23T03:50:55;9.00;99.90
1878;DHT22;939;51.426;6.972;2024-03-23T03:53:22;8.90;99.90
1878;DHT22;939;51.426;6.972;2024-03-23T03:55:48;8.90;99.90
1878;DHT22;939;51.426;6.972;2024-03-23T03:58:15;8.80;99.90
1878;DHT22;939;51.426;6.972;2024-03-23T04:00:41;8.90;99.90
1878;DHT22;939;51.426;6.972;2024-03-23T04:03:07;9.00;99.90
1878;DHT22;939;51.426;6.972;2024-03-23T04:05:34;9.00;99.90
1878;DHT22;939;51.426;6.972;2024-03-23T04:08:02;9.00;99.90
1878;DHT22;939;51.426;6.972;2024-03-23T04:10:28;9.00;99.90
1878;DHT22;939;51.426;6.972;2024-03-23T04:12:58;9.00;99.90
1878;DHT22;939;51.426;6.972;2024-03-23T04:15:23;9.00;99.90
1878;DHT22;939;51.426;6.972;2024-03-23T04:17:50;8.90;99.90
1878;DHT22;939;51.426;6.972;2024-03-23T04:20:16;8.90;99.90
1878;DHT22;939;51.426;6.972;2024-03-23T04:22:43;9.00;99.90
1878;DHT22;939;51.426;6.972;2024-03-23T04:25:11;9.00;99.90
1878;DHT22;939;51.426;6.972;2024-03-23T04:27:38;9.00;99.90
1878;DHT22;939;51.426;6.972;2024-03-23T04:30:06;9.00;99.90
1878;DHT22;939;51.426;6.972;2024-03-23T04:32:36;9.00;99.90
1878;DHT22;939;51.426;6.972;2024-03-23T04:35:02;9.00;99.90
1878;DHT22;939;51.426;6.972;2024-03-23T04:37:31;9.00;99.90
1878;DHT22;939;51.426;6.972;2024-03-23T04:39:58;9.00;99.90
1878;DHT22;939;51.426;6.972;2024-03-23T04:42:26;9.00;99.90
1878;DHT22;939;51.426;6.972;2024-03-23T04:44:53;9.00;99.90
1878;DHT22;939;51.426;6.972;2024-03-23T04:47:20;8.80;99.90
1878;DHT22;939;51.426;6.972;2024-03-23T04:49:48;8.90;99.90
1878;DHT22;939;51.426;6.972;2024-03-23T04:52:15;8.90;99.90
1878;DHT22;939;51.426;6.972;2024-03-23T04:54:42;8.90;99.90
1878;DHT22;939;51.426;6.972;2024-03-23T04:57:09;8.80;99.90
1878;DHT22;939;51.426;6.972;2024-03-23T04:59:36;8.80;99.90
1878;DHT22;939;51.426;6.972;2024-03-23T05:02:03;8.80;99.90
1878;DHT22;939;51.426;6.972;2024-03-23T05:04:30;8.70;99.90
1878;DHT22;939;51.426;6.972;2024-03-23T05:06:57;8.70;99.90
1878;DHT22;939;51.426;6.972;2024-03-23T05:09:26;8.70;99.90
1878;DHT22;939;51.426;6.972;2024-03-23T05:11:55;8.60;99.90
1878;DHT22;939;51.426;6.972;2024-03-23T05:14:22;8.60;99.90
1878;DHT22;939;51.426;6.972;2024-03-23T05:16:49;8.60;99.90
1878;DHT22;939;51.426;6.972;2024-03-23T05:19:16;8.70;99.90
1878;DHT22;939;51.426;6.972;2024-03-23T05:21:42;8.70;99.90
1878;DHT22;939;51.426;6.972;2024-03-23T05:24:09;8.60;99.90
1878;DHT22;939;51.426;6.972;2024-03-23T05:26:36;8.40;99.90
1878;DHT22;939;51.426;6.972;2024-03-23T05:29:04;8.30;99.90
1878;DHT22;939;51.426;6.972;2024-03-23T05:31:31;8.30;99.90
1878;DHT22;939;51.426;6.972;2024-03-23T05:33:59;8.30;99.90
1878;DHT22;939;51.426;6.972;2024-03-23T05:36:25;8.40;99.90
1878;DHT22;939;51.426;6.972;2024-03-23T05:38:52;8.40;99.90
1878;DHT22;939;51.426;6.972;2024-03-23T05:41:17;8.40;99.90
1878;DHT22;939;51.426;6.972;2024-03-23T05:43:44;8.40;99.90
1878;DHT22;939;51.426;6.972;2024-03-23T05:46:10;8.30;99.90
1878;DHT22;939;51.426;6.972;2024-03-23T05:48:37;8.30;99.90
1878;DHT22;939;51.426;6.972;2024-03-23T05:51:04;8.40;99.90
1878;DHT22;939;51.426;6.972;2024-03-23T05:53:31;8.40;99.90
1878;DHT22;939;51.426;6.972;2024-03-23T05:56:02;8.40;99.90
1878;DHT22;939;51.426;6.972;2024-03-23T05:58:30;8.40;99.90
1878;DHT22;939;51.426;6.972;2024-03-23T06:01:00;8.40;99.90
1878;DHT22;939;51.426;6.972;2024-03-23T06:03:28;8.40;99.90
1878;DHT22;939;51.426;6.972;2024-03-23T06:05:54;8.50;99.90
1878;DHT22;939;51.426;6.972;2024-03-23T06:08:23;8.40;99.90
1878;DHT22;939;51.426;6.972;2024-03-23T06:10:49;8.50;99.90
1878;DHT22;939;51.426;6.972;2024-03-23T06:13:16;8.50;99.90
1878;DHT22;939;51.426;6.972;2024-03-23T06:15:43;8.50;99.90
1878;DHT22;939;51.426;6.972;2024-03-23T06:18:11;8.50;99.90
1878;DHT22;939;51.426;6.972;2024-03-23T06:20:37;8.50;99.90
1878;DHT22;939;51.426;6.972;2024-03-23T06:23:04;8.50;99.90
1878;DHT22;939;51.426;6.972;2024-03-23T06:25:31;8.50;99.90
1878;DHT22;939;51.426;6.972;2024-03-23T06:27:58;8.50;99.90
1878;DHT22;939;51.426;6.972;2024-03-23T06:30:27;8.50;99.90
1878;DHT22;939;51.426;6.972;2024-03-23T06:32:52;8.30;99.90
1878;DHT22;939;51.426;6.972;2024-03-23T06:35:19;8.30;99.90
1878;DHT22;939;51.426;6.972;2024-03-23T06:37:45;8.40;99.90
1878;DHT22;939;51.426;6.972;2024-03-23T06:40:12;8.50;99.90
1878;DHT22;939;51.426;6.972;2024-03-23T06:42:39;8.40;99.90
1878;DHT22;939;51.426;6.972;2024-03-23T06:45:06;8.40;99.90
1878;DHT22;939;51.426;6.972;2024-03-23T06:47:32;8.50;99.90
1878;DHT22;939;51.426;6.972;2024-03-23T06:50:00;8.50;99.90
1878;DHT22;939;51.426;6.972;2024-03-23T06:52:27;8.60;99.90
1878;DHT22;939;51.426;6.972;2024-03-23T06:54:54;8.50;99.90
1878;DHT22;939;51.426;6.972;2024-03-23T07:05:08;8.60;99.90
1878;DHT22;939;51.426;6.972;2024-03-23T07:07:35;8.60;99.90
1878;DHT22;939;51.426;6.972;2024-03-23T07:10:01;8.60;99.90
1878;DHT22;939;51.426;6.972;2024-03-23T07:12:28;8.60;99.90
1878;DHT22;939;51.426;6.972;2024-03-23T07:14:54;8.70;99.90
1878;DHT22;939;51.426;6.972;2024-03-23T07:17:21;8.70;99.90
1878;DHT22;939;51.426;6.972;2024-03-23T07:19:47;8.70;99.90
1878;DHT22;939;51.426;6.972;2024-03-23T07:22:15;8.80;99.90
1878;DHT22;939;51.426;6.972;2024-03-23T07:24:41;8.90;99.90
1878;DHT22;939;51.426;6.972;2024-03-23T07:27:09;8.80;99.90
1878;DHT22;939;51.426;6.972;2024-03-23T07:29:35;8.80;99.90
1878;DHT22;939;51.426;6.972;2024-03-23T07:32:02;8.90;99.90
1878;DHT22;939;51.426;6.972;2024-03-23T07:34:29;8.80;99.90
1878;DHT22;939;51.426;6.972;2024-03-23T07:36:56;8.80;99.90
1878;DHT22;939;51.426;6.972;2024-03-23T07:39:23;8.80;99.90
1878;DHT22;939;51.426;6.972;2024-03-23T07:42:02;8.80;99.90
1878;DHT22;939;51.426;6.972;2024-03-23T07:44:34;8.80;99.90
1878;DHT22;939;51.426;6.972;2024-03-23T07:47:01;8.90;99.90
1878;DHT22;939;51.426;6.972;2024-03-23T07:49:27;8.80;99.90
1878;DHT22;939;51.426;6.972;2024-03-23T07:51:54;8.80;99.90
1878;DHT22;939;51.426;6.972;2024-03-23T07:54:20;8.90;99.90
1878;DHT22;939;51.426;6.972;2024-03-23T07:56:48;9.00;99.90
1878;DHT22;939;51.426;6.972;2024-03-23T07:59:14;9.00;99.90
1878;DHT22;939;51.426;6.972;2024-03-23T08:01:40;9.20;99.90
1878;DHT22;939;51.426;6.972;2024-03-23T08:04:06;9.20;99.90
1878;DHT22;939;51.426;6.972;2024-03-23T08:06:33;9.40;99.90
1878;DHT22;939;51.426;6.972;2024-03-23T08:08:59;9.50;99.90
1878;DHT22;939;51.426;6.972;2024-03-23T08:11:26;9.60;99.90
1878;DHT22;939;51.426;6.972;2024-03-23T08:13:54;9.70;99.90
1878;DHT22;939;51.426;6.972;2024-03-23T08:16:22;9.70;99.90
1878;DHT22;939;51.426;6.972;2024-03-23T08:18:48;9.80;99.90
1878;DHT22;939;51.426;6.972;2024-03-23T08:21:18;9.90;99.90
1878;DHT22;939;51.426;6.972;2024-03-23T08:23:44;9.80;99.90
1878;DHT22;939;51.426;6.972;2024-03-23T08:26:12;9.90;99.90
1878;DHT22;939;51.426;6.972;2024-03-23T08:28:38;9.90;99.90
1878;DHT22;939;51.426;6.972;2024-03-23T08:31:08;9.80;99.90
1878;DHT22;939;51.426;6.972;2024-03-23T08:33:34;9.80;99.90
1878;DHT22;939;51.426;6.972;2024-03-23T08:36:11;9.80;99.90
1878;DHT22;939;51.426;6.972;2024-03-23T08:38:51;9.80;99.90
1878;DHT22;939;51.426;6.972;2024-03-23T08:41:22;10.00;99.90
1878;DHT22;939;51.426;6.972;2024-03-23T08:43:50;9.90;99.90
1878;DHT22;939;51.426;6.972;2024-03-23T08:46:35;9.90;99.90
1878;DHT22;939;51.426;6.972;2024-03-23T08:49:01;9.90;99.90
1878;DHT22;939;51.426;6.972;2024-03-23T08:51:28;9.80;99.90
1878;DHT22;939;51.426;6.972;2024-03-23T08:53:56;9.90;99.90
1878;DHT22;939;51.426;6.972;2024-03-23T08:56:27;9.70;99.90
1878;DHT22;939;51.426;6.972;2024-03-23T08:58:56;9.50;99.90
1878;DHT22;939;51.426;6.972;2024-03-23T09:01:31;9.30;99.90
1878;DHT22;939;51.426;6.972;2024-03-23T09:04:00;9.20;99.90
1878;DHT22;939;51.426;6.972;2024-03-23T09:06:34;9.10;99.90
1878;DHT22;939;51.426;6.972;2024-03-23T09:09:03;9.10;99.90
1878;DHT22;939;51.426;6.972;2024-03-23T09:11:30;9.10;99.90
1878;DHT22;939;51.426;6.972;2024-03-23T09:13:56;9.20;99.90
1878;DHT22;939;51.426;6.972;2024-03-23T09:16:25;9.20;99.90
1878;DHT22;939;51.426;6.972;2024-03-23T09:19:07;9.20;99.90
1878;DHT22;939;51.426;6.972;2024-03-23T09:21:54;9.20;99.90
1878;DHT22;939;51.426;6.972;2024-03-23T09:24:22;9.20;99.90
1878;DHT22;939;51.426;6.972;2024-03-23T09:27:04;9.10;99.90
1878;DHT22;939;51.426;6.972;2024-03-23T09:29:53;9.10;99.90
1878;DHT22;939;51.426;6.972;2024-03-23T09:32:26;9.20;99.90
1878;DHT22;939;51.426;6.972;2024-03-23T09:35:04;9.30;99.90
1878;DHT22;939;51.426;6.972;2024-03-23T09:37:30;9.50;99.90
1878;DHT22;939;51.426;6.972;2024-03-23T09:40:13;9.70;99.90
1878;DHT22;939;51.426;6.972;2024-03-23T09:42:40;9.80;99.90
1878;DHT22;939;51.426;6.972;2024-03-23T09:45:27;10.20;99.90
1878;DHT22;939;51.426;6.972;2024-03-23T09:47:55;10.30;99.90
1878;DHT22;939;51.426;6.972;2024-03-23T09:53:45;10.70;99.90
1878;DHT22;939;51.426;6.972;2024-03-23T09:56:12;10.80;99.90
1878;DHT22;939;51.426;6.972;2024-03-23T09:58:42;10.60;99.90
1878;DHT22;939;51.426;6.972;2024-03-23T10:01:09;10.80;99.90
1878;DHT22;939;51.426;6.972;2024-03-23T10:03:45;12.20;99.90
1878;DHT22;939;51.426;6.972;2024-03-23T10:06:24;13.00;99.90
1878;DHT22;939;51.426;6.972;2024-03-23T10:08:53;12.50;97.60
1878;DHT22;939;51.426;6.972;2024-03-23T10:11:21;12.00;99.40
1878;DHT22;939;51.426;6.972;2024-03-23T10:13:49;13.40;98.80
1878;DHT22;939;51.426;6.972;2024-03-23T10:16:24;14.10;92.40
1878;DHT22;939;51.426;6.972;2024-03-23T10:18:54;13.20;96.00
1878;DHT22;939;51.426;6.972;2024-03-23T10:21:21;12.90;97.00
1878;DHT22;939;51.426;6.972;2024-03-23T10:23:47;12.50;99.90
1878;DHT22;939;51.426;6.972;2024-03-23T10:26:19;12.10;98.60
1878;DHT22;939;51.426;6.972;2024-03-23T10:28:54;13.80;95.30
1878;DHT22;939;51.426;6.972;2024-03-23T10:31:22;15.70;91.90
1878;DHT22;939;51.426;6.972;2024-03-23T10:33:48;16.60;83.00
1878;DHT22;939;51.426;6.972;2024-03-23T10:36:18;17.00;90.60
1878;DHT22;939;51.426;6.972;2024-03-23T10:38:47;17.90;69.20
1878;DHT22;939;51.426;6.972;2024-03-23T10:41:14;16.60;65.80
1878;DHT22;939;51.426;6.972;2024-03-23T10:43:41;15.50;75.10
1878;DHT22;939;51.426;6.972;2024-03-23T10:46:11;14.60;78.70
1878;DHT22;939;51.426;6.972;2024-03-23T10:48:40;13.60;90.60
1878;DHT22;939;51.426;6.972;2024-03-23T10:51:14;12.30;93.10
1878;DHT22;939;51.426;6.972;2024-03-23T10:53:47;11.10;94.70
1878;DHT22;939;51.426;6.972;2024-03-23T10:56:39;10.10;97.30
1878;DHT22;939;51.426;6.972;2024-03-23T10:59:45;9.50;99.90
1878;DHT22;939;51.426;6.972;2024-03-23T11:02:27;9.20;99.90
1878;DHT22;939;51.426;6.972;2024-03-23T11:05:33;9.00;99.90
1878;DHT22;939;51.426;6.972;2024-03-23T11:08:39;8.90;99.90
1878;DHT22;939;51.426;6.972;2024-03-23T11:11:25;8.90;99.90
1878;DHT22;939;51.426;6.972;2024-03-23T11:14:21;9.20;99.90
1878;DHT22;939;51.426;6.972;2024-03-23T11:18:20;9.30;99.90
1878;DHT22;939;51.426;6.972;2024-03-23T11:20:47;9.90;99.90
1878;DHT22;939;51.426;6.972;2024-03-23T11:23:34;11.70;99.90
1878;DHT22;939;51.426;6.972;2024-03-23T11:30:08;13.20;99.90
1878;DHT22;939;51.426;6.972;2024-03-23T13:07:59;11.00;99.90
1878;DHT22;939;51.426;6.972;2024-03-23T13:10:26;10.40;99.90
1878;DHT22;939;51.426;6.972;2024-03-23T13:12:52;10.20;99.90
1878;DHT22;939;51.426;6.972;2024-03-23T13:15:19;10.20;99.90
1878;DHT22;939;51.426;6.972;2024-03-23T13:17:46;10.30;99.90
1878;DHT22;939;51.426;6.972;2024-03-23T13:20:13;10.70;99.90
1878;DHT22;939;51.426;6.972;2024-03-23T13:22:39;10.70;99.90
1878;DHT22;939;51.426;6.972;2024-03-23T13:25:08;10.60;99.90
1878;DHT22;939;51.426;6.972;2024-03-23T13:27:35;10.50;99.90
1878;DHT22;939;51.426;6.972;2024-03-23T13:30:02;10.60;99.90
1878;DHT22;939;51.426;6.972;2024-03-23T13:32:29;10.70;99.90
1878;DHT22;939;51.426;6.972;2024-03-23T13:34:56;10.70;99.90
1878;DHT22;939;51.426;6.972;2024-03-23T13:37:22;10.50;99.90
1878;DHT22;939;51.426;6.972;2024-03-23T13:39:49;10.40;99.90
1878;DHT22;939;51.426;6.972;2024-03-23T13:42:16;10.90;99.90
1878;DHT22;939;51.426;6.972;2024-03-23T13:44:43;11.20;99.90
1878;DHT22;939;51.426;6.972;2024-03-23T13:47:09;11.00;98.80
1878;DHT22;939;51.426;6.972;2024-03-23T13:49:36;10.70;99.90
1878;DHT22;939;51.426;6.972;2024-03-23T13:52:02;10.50;99.90
1878;DHT22;939;51.426;6.972;2024-03-23T13:54:29;10.40;99.90
1878;DHT22;939;51.426;6.972;2024-03-23T13:56:55;10.40;99.90
1878;DHT22;939;51.426;6.972;2024-03-23T13:59:27;10.80;97.40
1878;DHT22;939;51.426;6.972;2024-03-23T14:01:54;12.50;97.30
1878;DHT22;939;51.426;6.972;2024-03-23T14:04:24;14.20;95.30
1878;DHT22;939;51.426;6.972;2024-03-23T14:06:50;15.40;80.20
1878;DHT22;939;51.426;6.972;2024-03-23T14:09:18;15.20;73.10
1878;DHT22;939;51.426;6.972;2024-03-23T14:15:17;13.50;74.70
1878;DHT22;939;51.426;6.972;2024-03-23T14:17:52;13.10;77.60
1878;DHT22;939;51.426;6.972;2024-03-23T14:20:23;13.00;79.30
1878;DHT22;939;51.426;6.972;2024-03-23T14:22:51;13.10;87.30
1878;DHT22;939;51.426;6.972;2024-03-23T14:25:17;12.90;81.10
1878;DHT22;939;51.426;6.972;2024-03-23T14:27:45;12.80;76.50
1878;DHT22;939;51.426;6.972;2024-03-23T14:30:13;12.40;73.40
1878;DHT22;939;51.426;6.972;2024-03-23T14:32:40;12.00;77.00
1878;DHT22;939;51.426;6.972;2024-03-23T14:37:52;11.60;84.10
1878;DHT22;939;51.426;6.972;2024-03-23T14:40:28;11.30;81.90
1878;DHT22;939;51.426;6.972;2024-03-23T14:43:05;11.50;85.70
1878;DHT22;939;51.426;6.972;2024-03-23T14:45:35;11.80;84.60
1878;DHT22;939;51.426;6.972;2024-03-23T14:48:06;11.90;87.50
1878;DHT22;939;51.426;6.972;2024-03-23T14:50:32;11.70;87.00
1878;DHT22;939;51.426;6.972;2024-03-23T14:55:42;11.20;86.90
1878;DHT22;939;51.426;6.972;2024-03-23T14:58:14;11.00;87.80
1878;DHT22;939;51.426;6.972;2024-03-23T15:00:41;10.90;90.60
1878;DHT22;939;51.426;6.972;2024-03-23T15:03:09;10.80;90.80
1878;DHT22;939;51.426;6.972;2024-03-23T15:05:34;10.80;91.70
1878;DHT22;939;51.426;6.972;2024-03-23T15:08:03;10.80;94.20
1878;DHT22;939;51.426;6.972;2024-03-23T15:10:29;10.80;92.60
1878;DHT22;939;51.426;6.972;2024-03-23T15:12:56;10.60;92.30
1878;DHT22;939;51.426;6.972;2024-03-23T15:15:22;10.60;94.00
1878;DHT22;939;51.426;6.972;2024-03-23T15:17:50;10.70;92.40
1878;DHT22;939;51.426;6.972;2024-03-23T15:20:16;11.20;92.80
1878;DHT22;939;51.426;6.972;2024-03-23T15:22:43;11.70;93.70
1878;DHT22;939;51.426;6.972;2024-03-23T15:25:10;12.10;90.60
1878;DHT22;939;51.426;6.972;2024-03-23T15:27:39;12.00;90.00
1878;DHT22;939;51.426;6.972;2024-03-23T15:30:06;11.90;90.70
1878;DHT22;939;51.426;6.972;2024-03-23T15:32:33;11.90;89.40
1878;DHT22;939;51.426;6.972;2024-03-23T15:35:02;12.10;87.70
1878;DHT22;939;51.426;6.972;2024-03-23T15:37:31;12.50;87.40
1878;DHT22;939;51.426;6.972;2024-03-23T15:40:02;12.80;86.00
1878;DHT22;939;51.426;6.972;2024-03-23T15:42:29;12.90;84.30
1878;DHT22;939;51.426;6.972;2024-03-23T15:44:55;12.50;84.70
1878;DHT22;939;51.426;6.972;2024-03-23T15:47:22;12.30;84.20
1878;DHT22;939;51.426;6.972;2024-03-23T15:49:49;12.60;84.90
1878;DHT22;939;51.426;6.972;2024-03-23T15:52:23;13.20;78.30
1878;DHT22;939;51.426;6.972;2024-03-23T15:54:50;13.70;79.30
1878;DHT22;939;51.426;6.972;2024-03-23T15:57:18;13.30;76.80
1878;DHT22;939;51.426;6.972;2024-03-23T15:59:44;13.10;76.30
1878;DHT22;939;51.426;6.972;2024-03-23T16:02:11;13.00;79.60
1878;DHT22;939;51.426;6.972;2024-03-23T16:04:38;12.70;82.30
1878;DHT22;939;51.426;6.972;2024-03-23T16:07:05;12.30;79.60
1878;DHT22;939;51.426;6.972;2024-03-23T16:09:33;12.00;81.60
1878;DHT22;939;51.426;6.972;2024-03-23T16:12:01;11.60;86.90
1878;DHT22;939;51.426;6.972;2024-03-23T16:14:27;11.40;86.60
1878;DHT22;939;51.426;6.972;2024-03-23T16:16:59;11.20;90.00
1878;DHT22;939;51.426;6.972;2024-03-23T16:19:25;11.00;90.80
1878;DHT22;939;51.426;6.972;2024-03-23T16:21:52;11.30;86.50
1878;DHT22;939;51.426;6.972;2024-03-23T16:24:17;11.70;87.00
1878;DHT22;939;51.426;6.972;2024-03-23T16:26:46;12.10;84.70
1878;DHT22;939;51.426;6.972;2024-03-23T16:29:12;12.40;81.90
1878;DHT22;939;51.426;6.972;2024-03-23T16:31:39;12.60;86.70
1878;DHT22;939;51.426;6.972;2024-03-23T16:34:05;12.80;82.50
1878;DHT22;939;51.426;6.972;2024-03-23T16:36:32;12.90;85.00
1878;DHT22;939;51.426;6.972;2024-03-23T16:38:58;13.10;81.00
1878;DHT22;939;51.426;6.972;2024-03-23T16:41:25;13.00;80.60
1878;DHT22;939;51.426;6.972;2024-03-23T16:43:54;13.00;79.20
1878;DHT22;939;51.426;6.972;2024-03-23T16:46:22;12.80;77.00
1878;DHT22;939;51.426;6.972;2024-03-23T16:48:48;12.30;78.70
1878;DHT22;939;51.426;6.972;2024-03-23T16:51:15;12.00;77.80
1878;DHT22;939;51.426;6.972;2024-03-23T16:53:41;11.80;78.40
1878;DHT22;939;51.426;6.972;2024-03-23T16:56:09;11.60;79.40
1878;DHT22;939;51.426;6.972;2024-03-23T16:58:36;11.10;82.20
1878;DHT22;939;51.426;6.972;2024-03-23T17:01:06;11.00;80.70
1878;DHT22;939;51.426;6.972;2024-03-23T17:03:34;10.60;85.60
1878;DHT22;939;51.426;6.972;2024-03-23T17:06:03;10.30;85.40
1878;DHT22;939;51.426;6.972;2024-03-23T17:08:30;10.30;85.70
1878;DHT22;939;51.426;6.972;2024-03-23T17:10:58;10.30;89.40
1878;DHT22;939;51.426;6.972;2024-03-23T17:13:28;10.20;89.50
1878;DHT22;939;51.426;6.972;2024-03-23T17:15:55;10.10;91.40
1878;DHT22;939;51.426;6.972;2024-03-23T17:18:22;9.90;93.70
1878;DHT22;939;51.426;6.972;2024-03-23T17:20:49;9.70;95.00
1878;DHT22;939;51.426;6.972;2024-03-23T17:23:22;9.60;99.00
1878;DHT22;939;51.426;6.972;2024-03-23T17:25:50;9.40;99.90
1878;DHT22;939;51.426;6.972;2024-03-23T17:28:15;9.30;99.90
1878;DHT22;939;51.426;6.972;2024-03-23T17:30:42;9.10;99.90
1878;DHT22;939;51.426;6.972;2024-03-23T17:33:09;9.00;99.90
1878;DHT22;939;51.426;6.972;2024-03-23T17:35:37;9.00;99.90
1878;DHT22;939;51.426;6.972;2024-03-23T17:38:04;8.90;99.90
1878;DHT22;939;51.426;6.972;2024-03-23T17:40:30;8.90;99.90
1878;DHT22;939;51.426;6.972;2024-03-23T17:42:57;8.90;99.90
1878;DHT22;939;51.426;6.972;2024-03-23T17:45:23;8.90;99.90
1878;DHT22;939;51.426;6.972;2024-03-23T17:47:50;8.80;99.90
1878;DHT22;939;51.426;6.972;2024-03-23T17:50:17;8.90;99.90
1878;DHT22;939;51.426;6.972;2024-03-23T17:52:46;8.90;99.90
1878;DHT22;939;51.426;6.972;2024-03-23T17:55:13;8.90;99.90
1878;DHT22;939;51.426;6.972;2024-03-23T17:57:39;8.80;99.90
1878;DHT22;939;51.426;6.972;2024-03-23T18:00:06;8.60;99.90
1878;DHT22;939;51.426;6.972;2024-03-23T18:02:34;8.50;99.90
1878;DHT22;939;51.426;6.972;2024-03-23T18:05:00;8.50;99.90
1878;DHT22;939;51.426;6.972;2024-03-23T18:07:27;8.50;99.90
1878;DHT22;939;51.426;6.972;2024-03-23T18:09:54;8.40;99.90
1878;DHT22;939;51.426;6.972;2024-03-23T18:12:21;8.50;99.90
1878;DHT22;939;51.426;6.972;2024-03-23T18:14:48;8.50;99.90
1878;DHT22;939;51.426;6.972;2024-03-23T18:17:15;8.40;99.90
1878;DHT22;939;51.426;6.972;2024-03-23T18:19:41;8.40;99.90
1878;DHT22;939;51.426;6.972;2024-03-23T18:22:08;8.40;99.90
1878;DHT22;939;51.426;6.972;2024-03-23T18:24:34;8.20;99.90
1878;DHT22;939;51.426;6.972;2024-03-23T18:27:02;8.20;99.90
1878;DHT22;939;51.426;6.972;2024-03-23T18:29:28;8.20;99.90
1878;DHT22;939;51.426;6.972;2024-03-23T18:31:55;8.20;99.90
1878;DHT22;939;51.426;6.972;2024-03-23T18:34:21;8.20;99.90
1878;DHT22;939;51.426;6.972;2024-03-23T18:36:47;8.20;99.90
1878;DHT22;939;51.426;6.972;2024-03-23T18:39:13;8.20;99.90
1878;DHT22;939;51.426;6.972;2024-03-23T18:41:40;8.20;99.90
1878;DHT22;939;51.426;6.972;2024-03-23T18:44:08;8.20;99.90
1878;DHT22;939;51.426;6.972;2024-03-23T18:46:35;8.20;99.90
1878;DHT22;939;51.426;6.972;2024-03-23T18:49:01;8.20;99.90
1878;DHT22;939;51.426;6.972;2024-03-23T18:51:29;8.10;99.90
1878;DHT22;939;51.426;6.972;2024-03-23T18:53:55;7.90;99.90
1878;DHT22;939;51.426;6.972;2024-03-23T18:56:25;7.80;99.90
1878;DHT22;939;51.426;6.972;2024-03-23T18:58:51;7.90;99.90
1878;DHT22;939;51.426;6.972;2024-03-23T19:01:19;7.90;99.90
1878;DHT22;939;51.426;6.972;2024-03-23T19:10:30;8.00;99.90
1878;DHT22;939;51.426;6.972;2024-03-23T19:12:56;7.40;99.90
1878;DHT22;939;51.426;6.972;2024-03-23T19:15:22;7.40;99.90
1878;DHT22;939;51.426;6.972;2024-03-23T19:17:50;7.50;99.90
1878;DHT22;939;51.426;6.972;2024-03-23T19:20:16;7.60;99.90
1878;DHT22;939;51.426;6.972;2024-03-23T19:22:43;7.60;99.90
1878;DHT22;939;51.426;6.972;2024-03-23T19:25:09;7.60;99.90
1878;DHT22;939;51.426;6.972;2024-03-23T19:27:36;7.60;99.90
1878;DHT22;939;51.426;6.972;2024-03-23T19:30:05;7.60;99.90
1878;DHT22;939;51.426;6.972;2024-03-23T19:32:32;7.70;99.90
1878;DHT22;939;51.426;6.972;2024-03-23T19:34:59;7.50;99.90
1878;DHT22;939;51.426;6.972;2024-03-23T19:37:26;7.60;99.90
1878;DHT22;939;51.426;6.972;2024-03-23T19:39:52;7.40;99.90
1878;DHT22;939;51.426;6.972;2024-03-23T19:42:19;7.60;99.90
1878;DHT22;939;51.426;6.972;2024-03-23T19:44:45;7.70;99.90
1878;DHT22;939;51.426;6.972;2024-03-23T19:47:13;7.70;99.90
1878;DHT22;939;51.426;6.972;2024-03-23T19:49:38;7.80;99.90
1878;DHT22;939;51.426;6.972;2024-03-23T19:52:07;7.80;99.90
1878;DHT22;939;51.426;6.972;2024-03-23T19:54:33;7.70;99.90
1878;DHT22;939;51.426;6.972;2024-03-23T19:57:00;7.80;99.90
1878;DHT22;939;51.426;6.972;2024-03-23T19:59:26;7.70;99.90
1878;DHT22;939;51.426;6.972;2024-03-23T20:01:52;7.70;99.90
1878;DHT22;939;51.426;6.972;2024-03-23T20:04:18;7.40;99.90
1878;DHT22;939;51.426;6.972;2024-03-23T20:06:45;7.20;99.90
1878;DHT22;939;51.426;6.972;2024-03-23T20:09:12;7.00;99.90
1878;DHT22;939;51.426;6.972;2024-03-23T20:11:40;7.20;99.90
1878;DHT22;939;51.426;6.972;2024-03-23T20:14:06;7.20;99.90